Allerte
Precipitazioni in corso 

Nessun fenomeno

Allerta Gelo (░C)  

Nessuna

Allerta Vento (km/h)  

Nessuna

Scarsa VisibilitÓ (m) 

Nessuna

Allerta Caldo (░C)  

Nessuna

Allerta Afa (░C-UR)  

Nessuna

Dati e Grafici Climatici 3-7 gg
L'OMTeA propone un elaborazione dei più importanti parametri meteorologici rilevati dalle stazioni che hanno aderito al progetto di monitoraggio. In questa sezione è possibile consultare i dati provenienti dalle centraline, interpretati attraverso output testuale e grafico.
Se vuoi aderire alla rete OMTeA vai alla pagina Info e leggi requisiti e vantaggi.

Stazione di Cefal¨ - www.meteocefalu.altervista.org

Valori rilevati il 17/07/2019 alle ore 22:14

Temperatura atmosferica: 23.6 °C
Pressione atmosferica: 1009.6 mbar
Umidità relativa: 74 %
Pioggia (cumulata giornaliera): 0.5 mm
Intensità e direzione vento: 3.9 Km/h da S

Altitudine: 20 metri s.l.m.
Latitudine: 38.02° N
Longitudine: 14.01° E



Entra nella rete OMTeA!. Potrai liberamente usare sul tuo sito questi grafici; info alla pagina Istruzioni.

Ultime 50 rilevazioni
Orario Temp
°C
Rugiada
°C
Prec.
mm
Press.
mbar
Umidità
%
Int. vento
km/h
Dir.
vento
22:14 - 17/07 23.6 18.7 0 1009.60 74 3.9 S
21:59 - 17/07 23.8 18.9 0 1009.60 74 3.3 S
21:44 - 17/07 23.8 18.9 0 1009.50 74 2.5 SSO
21:29 - 17/07 23.8 18.9 0 1009.40 74 3.7 S
21:14 - 17/07 24.0 18.6 0 1009.30 72 7.8 S
20:59 - 17/07 24.2 18.8 0 1009.10 72 4.7 S
20:44 - 17/07 24.4 18.8 0 1009.10 71 3.3 SE
20:29 - 17/07 24.9 19.0 0 1009.20 70 3.1 SSO
20:14 - 17/07 25.2 19.1 0 1009.00 69 2.3 O
19:59 - 17/07 25.4 19.3 0 1009.20 69 1.9 NNO
19:44 - 17/07 25.7 19.3 0 1009.10 68 2.3 O
19:29 - 17/07 25.9 19.5 0 1009.10 68 1.0 NNO
19:14 - 17/07 26.1 20.0 0 1009.00 69 3.9 SSO
18:59 - 17/07 26.5 20.3 0 1009.10 69 4.2 SSE
18:44 - 17/07 26.6 20.4 0 1009.00 69 1.7 SO
18:29 - 17/07 26.8 20.6 0 1009.10 69 2.7 NNO
18:14 - 17/07 26.4 20.2 0 1009.20 69 2.5 O
17:59 - 17/07 26.6 20.4 0 1009.40 69 3.3 SSO
17:44 - 17/07 26.5 20.6 0 1009.20 70 1.9 O
17:29 - 17/07 26.6 20.7 0 1009.30 70 7.8 SSO
17:14 - 17/07 26.5 20.6 0 1009.40 70 3.3 O
16:59 - 17/07 26.5 20.6 0 1009.50 70 3.3 O
16:44 - 17/07 26.6 20.7 0 1009.60 70 1.4 ONO
16:29 - 17/07 26.8 20.9 0 1009.60 70 3.3 N
16:14 - 17/07 26.6 20.4 0 1009.70 69 2.3 O
15:59 - 17/07 26.8 20.6 0 1009.80 69 2.8 O
15:44 - 17/07 26.5 20.6 0 1009.70 70 6.0 SO
15:29 - 17/07 26.3 20.1 0 1009.70 69 4.1 ONO
15:14 - 17/07 26.4 20.0 0 1010.00 68 8.1 OSO
14:59 - 17/07 26.9 20.5 0 1009.90 68 6.6 S
14:44 - 17/07 26.8 19.9 0 1009.80 66 2.1 OSO
14:29 - 17/07 26.8 20.1 0 1009.70 67 6.2 SO
14:14 - 17/07 26.6 19.7 0 1009.80 66 4.5 O
13:59 - 17/07 26.5 19.6 0 1009.80 66 7.4 NO
13:44 - 17/07 26.4 20.0 0 1009.70 68 2.8 ONO
13:29 - 17/07 26.5 20.1 0 1009.80 68 4.5 OSO
13:14 - 17/07 26.4 19.8 0 1009.90 67 5.5 O
12:59 - 17/07 26.5 19.6 0 1010.00 66 4.9 OSO
12:44 - 17/07 26.4 19.3 0 1010.20 65 4.4 ONO
12:29 - 17/07 26.6 19.0 0 1010.20 63 4.2 OSO
12:14 - 17/07 26.4 18.8 0 1010.00 63 2.5 SO
11:59 - 17/07 26.4 18.5 0 1010.00 62 3.2 OSO
11:44 - 17/07 26.5 18.9 0 1009.90 63 1.8 NNO
11:29 - 17/07 26.5 19.4 0 1010.00 65 7.5 SO
11:14 - 17/07 26.6 19.5 0 1009.80 65 2.1 N
10:59 - 17/07 26.4 19.5 0 1009.70 66 1.3 SE
10:44 - 17/07 26.1 19.2 0 1009.60 66 2.4 SSO
10:29 - 17/07 25.6 19.0 0 1009.50 67 2.2 SSO
10:14 - 17/07 25.5 19.1 0 1009.50 68 0.3 ENE
09:59 - 17/07 25.6 18.8 0 1009.40 66 2.1 NE


   In caso di mancato funzionamento di qualche risorsa, vi preghiamo di segnalarcelo alla pagina Contatti.
© 2019 Osservatorio Meteo OMTeA
Sito di informazione su Meteo, Tempo in atto e Clima in Italia